Time;durP1;ratioP1;P1;durP2;ratioP2;P2;SDS_P1;SDS_P2;PMS_P1;PMS_P2;Temp;Humidity;BMP_temperature;BMP_pressure;BME280_temperature;BME280_humidity;BME280_pressure;Samples;Min_cycle;Max_cycle;Signal;HPM_P1;HPM_P2
2023/09/27 06:01:19;;;;;;;30.73;12.97;;;;;;;;;;5580026;23;20832;-71
2023/09/27 06:03:45;;;;;;;16.20;9.50;;;;;;;;;;4924152;29;20438;-72
2023/09/27 06:06:12;;;;;;;21.03;10.10;;;;;;;;;;4930093;29;20413;-72
2023/09/27 06:08:38;;;;;;;14.73;9.30;;;;;;;;;;4939348;28;20576;-72
2023/09/27 06:11:04;;;;;;;18.33;10.43;;;;;;;;;;4924856;29;20454;-73
2023/09/27 06:13:31;;;;;;;24.07;10.23;;;;;;;;;;4915374;29;20446;-71
2023/09/27 06:15:58;;;;;;;16.03;9.73;;;;;;;;;;4984145;23;20596;-70
2023/09/27 06:18:24;;;;;;;23.83;11.10;;;;;;;;;;4974586;28;20466;-69
2023/09/27 06:20:52;;;;;;;24.03;10.00;;;;;;;;;;4975637;28;20557;-72
2023/09/27 06:23:19;;;;;;;17.33;9.20;;;;;;;;;;4976147;28;20792;-72
2023/09/27 06:25:46;;;;;;;31.93;10.63;;;;;;;;;;4953153;28;20442;-75
2023/09/27 06:28:13;;;;;;;22.70;11.77;;;;;;;;;;4952441;29;20420;-73
2023/09/27 06:30:40;;;;;;;28.40;10.50;;;;;;;;;;4942323;29;20436;-72
2023/09/27 06:33:06;;;;;;;20.23;10.40;;;;;;;;;;4942412;28;20456;-71
2023/09/27 06:35:33;;;;;;;27.50;10.10;;;;;;;;;;4944984;29;20468;-73
2023/09/27 06:38:00;;;;;;;18.20;9.53;;;;;;;;;;4946151;29;20465;-73
2023/09/27 06:40:29;;;;;;;18.97;10.93;;;;;;;;;;4942687;29;20570;-70
2023/09/27 06:42:55;;;;;;;19.40;10.30;;;;;;;;;;4944554;28;20921;-71
2023/09/27 06:45:21;;;;;;;27.77;10.67;;;;;;;;;;4949449;29;20444;-71
2023/09/27 06:47:47;;;;;;;26.87;10.67;;;;;;;;;;4948357;28;20413;-72
2023/09/27 06:50:14;;;;;;;19.03;10.07;;;;;;;;;;4943454;29;20960;-71
2023/09/27 06:52:40;;;;;;;19.23;10.53;;;;;;;;;;4945668;29;20770;-72
2023/09/27 06:55:16;;;;;;;26.50;9.47;;;;;;;;;;4949355;29;20436;-70
2023/09/27 06:57:42;;;;;;;21.70;9.90;;;;;;;;;;4945577;29;20414;-69
2023/09/27 07:00:24;;;;;;;12.40;9.10;;;;;;;;;;4949235;29;20576;-70
2023/09/27 07:02:53;;;;;;;22.70;9.50;;;;;;;;;;4943982;29;20461;-71
2023/09/27 07:05:23;;;;;;;21.83;8.83;;;;;;;;;;4944532;29;20448;-73
2023/09/27 07:07:49;;;;;;;14.17;8.40;;;;;;;;;;4956155;29;20488;-74
2023/09/27 07:10:15;;;;;;;17.70;8.87;;;;;;;;;;4954596;29;20424;-72
2023/09/27 07:12:41;;;;;;;11.90;8.20;;;;;;;;;;4955633;29;20467;-72
2023/09/27 07:15:14;;;;;;;11.47;7.60;;;;;;;;;;4954926;28;20519;-71
2023/09/27 07:17:40;;;;;;;13.63;7.63;;;;;;;;;;4955673;28;20401;-71
2023/09/27 07:20:16;;;;;;;12.17;7.57;;;;;;;;;;4948213;28;20473;-69
2023/09/27 07:22:42;;;;;;;12.70;7.90;;;;;;;;;;4948217;28;20963;-69
2023/09/27 07:25:12;;;;;;;12.60;8.20;;;;;;;;;;4950974;28;20456;-69
2023/09/27 07:27:40;;;;;;;11.70;8.00;;;;;;;;;;4949684;28;20483;-70
2023/09/27 07:30:09;;;;;;;10.60;6.93;;;;;;;;;;4956910;28;20437;-69
2023/09/27 07:32:37;;;;;;;11.70;6.57;;;;;;;;;;4951392;29;20441;-69
2023/09/27 07:35:03;;;;;;;13.60;7.67;;;;;;;;;;4948620;28;20591;-70
2023/09/27 07:37:32;;;;;;;11.23;7.23;;;;;;;;;;4954116;28;20969;-68
2023/09/27 07:39:58;;;;;;;10.40;6.97;;;;;;;;;;4955693;28;20527;-69
2023/09/27 07:42:24;;;;;;;10.40;7.83;;;;;;;;;;4954392;28;20799;-69
2023/09/27 07:44:50;;;;;;;12.40;7.70;;;;;;;;;;4957642;28;20451;-69
2023/09/27 07:47:16;;;;;;;14.33;6.63;;;;;;;;;;4956907;28;20506;-69
2023/09/27 07:49:42;;;;;;;21.83;8.30;;;;;;;;;;4960700;28;20539;-70
2023/09/27 07:52:08;;;;;;;11.43;7.83;;;;;;;;;;4957063;28;20431;-69
2023/09/27 07:54:35;;;;;;;11.63;7.03;;;;;;;;;;4945816;28;20765;-70
2023/09/27 07:57:01;;;;;;;14.83;7.60;;;;;;;;;;4951092;28;20435;-69
2023/09/27 07:59:28;;;;;;;12.70;7.10;;;;;;;;;;4951623;28;20476;-70
2023/09/27 08:01:54;;;;;;;10.20;6.70;;;;;;;;;;4958172;28;20432;-69
2023/09/27 08:04:20;;;;;;;14.73;7.23;;;;;;;;;;4956354;28;20947;-69
2023/09/27 08:06:46;;;;;;;12.47;7.33;;;;;;;;;;4959452;28;20432;-69
2023/09/27 08:09:14;;;;;;;13.60;6.70;;;;;;;;;;4954531;28;20436;-69
2023/09/27 08:11:40;;;;;;;18.47;6.20;;;;;;;;;;4954220;28;20455;-70
2023/09/27 08:14:08;;;;;;;15.37;7.60;;;;;;;;;;4956789;28;20828;-69
2023/09/27 08:16:35;;;;;;;14.73;6.00;;;;;;;;;;4953577;28;20455;-69
2023/09/27 08:19:01;;;;;;;14.90;5.80;;;;;;;;;;4956454;28;20476;-69
2023/09/27 08:21:27;;;;;;;10.77;5.60;;;;;;;;;;4943010;29;20422;-69
2023/09/27 08:23:55;;;;;;;8.90;6.30;;;;;;;;;;4949609;28;20528;-70
2023/09/27 08:26:21;;;;;;;9.53;5.63;;;;;;;;;;4949878;28;20520;-70
2023/09/27 08:28:47;;;;;;;8.53;5.97;;;;;;;;;;4954838;28;20872;-70
2023/09/27 08:31:13;;;;;;;11.40;6.30;;;;;;;;;;4958658;28;20522;-69
2023/09/27 08:33:39;;;;;;;15.50;6.20;;;;;;;;;;4939954;28;20481;-70
2023/09/27 08:36:05;;;;;;;10.20;6.07;;;;;;;;;;4950694;28;20795;-69
2023/09/27 08:38:31;;;;;;;12.73;5.43;;;;;;;;;;4945005;28;20441;-70
2023/09/27 08:40:57;;;;;;;9.77;5.20;;;;;;;;;;4945149;28;20486;-69
2023/09/27 08:43:23;;;;;;;9.00;6.33;;;;;;;;;;4948127;28;20663;-69
2023/09/27 08:45:51;;;;;;;14.30;5.67;;;;;;;;;;4945037;28;20453;-69
2023/09/27 08:48:22;;;;;;;14.17;7.27;;;;;;;;;;4945709;28;20811;-71
2023/09/27 08:50:49;;;;;;;9.30;5.23;;;;;;;;;;4941457;28;20516;-71
2023/09/27 08:53:15;;;;;;;9.23;5.10;;;;;;;;;;4941611;28;20943;-70
2023/09/27 08:55:44;;;;;;;11.97;6.33;;;;;;;;;;4955874;28;20479;-69
2023/09/27 08:58:10;;;;;;;9.47;5.70;;;;;;;;;;4942095;28;20440;-69
2023/09/27 09:00:36;;;;;;;12.10;6.33;;;;;;;;;;4952615;28;20558;-71
2023/09/27 09:03:03;;;;;;;12.87;7.53;;;;;;;;;;4957111;28;20439;-69
2023/09/27 09:05:29;;;;;;;15.50;8.03;;;;;;;;;;4954088;28;20460;-69
2023/09/27 09:07:56;;;;;;;18.97;7.77;;;;;;;;;;4946188;28;20457;-69
2023/09/27 09:10:22;;;;;;;13.70;6.90;;;;;;;;;;4949012;28;20485;-69
2023/09/27 09:12:49;;;;;;;10.40;6.80;;;;;;;;;;4944333;28;20441;-69
2023/09/27 09:15:35;;;;;;;13.23;6.30;;;;;;;;;;4947229;28;20571;-69
2023/09/27 09:18:06;;;;;;;9.97;5.07;;;;;;;;;;4953755;28;20494;-68
2023/09/27 09:20:33;;;;;;;9.43;5.20;;;;;;;;;;4954054;28;20839;-71
2023/09/27 09:23:03;;;;;;;11.20;5.80;;;;;;;;;;4947696;28;20433;-69
2023/09/27 09:25:29;;;;;;;11.73;5.30;;;;;;;;;;4945219;28;20475;-71
2023/09/27 09:28:07;;;;;;;10.87;5.70;;;;;;;;;;4947940;28;20428;-70
2023/09/27 09:30:40;;;;;;;17.33;5.70;;;;;;;;;;4949150;28;20448;-70
2023/09/27 09:33:11;;;;;;;12.73;5.90;;;;;;;;;;4956689;28;20960;-70
2023/09/27 09:35:37;;;;;;;8.03;5.43;;;;;;;;;;4941658;28;20547;-69
2023/09/27 09:38:03;;;;;;;8.17;5.10;;;;;;;;;;4944443;28;20490;-69
2023/09/27 09:40:31;;;;;;;9.43;4.80;;;;;;;;;;4954301;28;20472;-68
2023/09/27 09:42:59;;;;;;;16.70;5.80;;;;;;;;;;4952832;28;20432;-70
2023/09/27 09:45:28;;;;;;;12.33;6.17;;;;;;;;;;4950390;28;20495;-70
2023/09/27 09:47:56;;;;;;;11.03;5.47;;;;;;;;;;4960097;28;20455;-69
2023/09/27 09:50:22;;;;;;;9.23;5.33;;;;;;;;;;4952919;28;20938;-70
2023/09/27 09:52:57;;;;;;;11.83;5.50;;;;;;;;;;4951696;28;20429;-70
2023/09/27 09:55:23;;;;;;;14.10;6.40;;;;;;;;;;4957720;28;20443;-70
2023/09/27 09:57:55;;;;;;;11.70;5.10;;;;;;;;;;4947790;28;20796;-70
2023/09/27 10:00:27;;;;;;;11.57;5.70;;;;;;;;;;4953480;28;20506;-71
2023/09/27 10:03:01;;;;;;;6.00;4.80;;;;;;;;;;4951467;28;20959;-70
2023/09/27 10:05:29;;;;;;;8.57;5.57;;;;;;;;;;4954072;28;20451;-70
2023/09/27 10:07:55;;;;;;;7.90;5.27;;;;;;;;;;4950883;28;20443;-69
2023/09/27 10:10:22;;;;;;;8.67;5.80;;;;;;;;;;4954627;28;20515;-75
2023/09/27 10:12:50;;;;;;;8.30;4.30;;;;;;;;;;4955381;28;20459;-70
2023/09/27 10:15:17;;;;;;;11.77;4.60;;;;;;;;;;4955256;28;20459;-70
2023/09/27 10:17:43;;;;;;;15.27;4.30;;;;;;;;;;4953468;28;20943;-71
2023/09/27 10:20:12;;;;;;;8.37;4.43;;;;;;;;;;4952891;28;20470;-70
2023/09/27 10:22:42;;;;;;;5.70;4.77;;;;;;;;;;4951811;28;20491;-72
2023/09/27 10:25:24;;;;;;;13.10;6.10;;;;;;;;;;4951246;28;20988;-71
2023/09/27 10:28:02;;;;;;;12.63;5.43;;;;;;;;;;4948167;28;20815;-69
2023/09/27 10:30:48;;;;;;;8.87;4.87;;;;;;;;;;4949544;28;20523;-69
2023/09/27 10:33:17;;;;;;;7.60;5.10;;;;;;;;;;4948021;28;20935;-68
2023/09/27 10:35:44;;;;;;;6.23;4.63;;;;;;;;;;4956371;28;20707;-69
2023/09/27 10:38:10;;;;;;;7.80;5.20;;;;;;;;;;4951107;28;20487;-68
2023/09/27 10:40:46;;;;;;;6.80;5.27;;;;;;;;;;4952166;28;20895;-68
2023/09/27 10:43:32;;;;;;;9.80;5.10;;;;;;;;;;4954864;28;20475;-69
2023/09/27 10:45:59;;;;;;;7.27;4.97;;;;;;;;;;4952117;28;20463;-69
2023/09/27 10:48:25;;;;;;;6.10;4.30;;;;;;;;;;4965468;28;20658;-67
2023/09/27 10:50:58;;;;;;;9.70;5.20;;;;;;;;;;4955716;28;20520;-68
2023/09/27 10:53:24;;;;;;;8.37;5.53;;;;;;;;;;4953539;28;20427;-69
2023/09/27 10:55:50;;;;;;;7.10;4.60;;;;;;;;;;4952667;28;20632;-68
2023/09/27 10:58:17;;;;;;;11.00;5.17;;;;;;;;;;4953219;28;20417;-69
2023/09/27 11:00:56;;;;;;;8.73;5.00;;;;;;;;;;4947522;28;20478;-68
2023/09/27 11:03:23;;;;;;;8.43;5.00;;;;;;;;;;4955751;28;20428;-68
2023/09/27 11:05:50;;;;;;;10.13;5.00;;;;;;;;;;4954974;28;21050;-68
2023/09/27 11:08:20;;;;;;;7.00;4.53;;;;;;;;;;4957675;28;20431;-69
2023/09/27 11:10:46;;;;;;;12.33;4.73;;;;;;;;;;4948196;28;20440;-68
2023/09/27 11:13:13;;;;;;;7.90;4.23;;;;;;;;;;4951082;28;20440;-68
2023/09/27 11:15:39;;;;;;;7.20;4.77;;;;;;;;;;4951239;28;20507;-69
2023/09/27 11:18:07;;;;;;;8.30;4.50;;;;;;;;;;4949442;28;20924;-69
2023/09/27 11:20:34;;;;;;;9.43;4.60;;;;;;;;;;4948759;28;20534;-69
2023/09/27 11:23:01;;;;;;;6.43;3.23;;;;;;;;;;4943954;28;20452;-69
2023/09/27 11:25:27;;;;;;;4.90;2.87;;;;;;;;;;4947747;28;20821;-69
2023/09/27 11:27:53;;;;;;;4.87;2.97;;;;;;;;;;4952736;28;20792;-68
2023/09/27 11:30:26;;;;;;;5.53;2.40;;;;;;;;;;4951430;29;20445;-69
2023/09/27 11:32:52;;;;;;;3.47;2.40;;;;;;;;;;4944791;28;20444;-71
2023/09/27 11:35:20;;;;;;;4.07;2.60;;;;;;;;;;4952906;28;20488;-71
2023/09/27 11:37:46;;;;;;;6.43;2.73;;;;;;;;;;4954729;28;20496;-75
2023/09/27 11:40:12;;;;;;;3.90;2.70;;;;;;;;;;4961173;28;20468;-76
2023/09/27 11:42:38;;;;;;;3.13;2.33;;;;;;;;;;4951467;28;20544;-77
2023/09/27 11:45:04;;;;;;;7.57;2.63;;;;;;;;;;4951141;28;20464;-77
2023/09/27 11:47:32;;;;;;;4.97;3.10;;;;;;;;;;4949008;29;20628;-76
2023/09/27 11:49:58;;;;;;;4.63;3.30;;;;;;;;;;4952074;29;20441;-76
2023/09/27 11:52:24;;;;;;;5.83;3.13;;;;;;;;;;4950512;28;20423;-77
2023/09/27 11:54:53;;;;;;;5.00;3.37;;;;;;;;;;4946676;28;20610;-77
2023/09/27 11:57:19;;;;;;;8.77;2.90;;;;;;;;;;4951055;28;20482;-76
2023/09/27 11:59:45;;;;;;;5.13;2.83;;;;;;;;;;4952295;28;20497;-78
2023/09/27 12:02:11;;;;;;;3.80;2.63;;;;;;;;;;4954980;28;20494;-76
2023/09/27 12:04:37;;;;;;;6.40;3.50;;;;;;;;;;4951598;28;20559;-77
2023/09/27 12:07:02;;;;;;;4.77;3.70;;;;;;;;;;4953581;28;20955;-79
2023/09/27 12:09:28;;;;;;;3.93;3.00;;;;;;;;;;4956142;28;20991;-78
2023/09/27 12:11:55;;;;;;;4.03;2.90;;;;;;;;;;4953347;28;20877;-78
2023/09/27 12:14:21;;;;;;;3.63;3.13;;;;;;;;;;4949511;28;20447;-78
2023/09/27 12:16:47;;;;;;;3.77;3.00;;;;;;;;;;4952431;28;20519;-76
2023/09/27 12:19:13;;;;;;;7.20;2.97;;;;;;;;;;4950651;28;20939;-73
2023/09/27 12:21:39;;;;;;;3.97;2.60;;;;;;;;;;4953994;28;20460;-72
2023/09/27 12:24:05;;;;;;;4.57;3.23;;;;;;;;;;4946834;28;20422;-74
2023/09/27 12:26:33;;;;;;;3.27;2.67;;;;;;;;;;4951835;28;20456;-74
2023/09/27 12:28:59;;;;;;;3.70;2.87;;;;;;;;;;4944727;28;20496;-74
2023/09/27 12:31:25;;;;;;;6.93;3.53;;;;;;;;;;4948674;28;20471;-74
2023/09/27 12:33:51;;;;;;;4.93;3.77;;;;;;;;;;4946100;28;20443;-74
2023/09/27 12:36:17;;;;;;;2.97;2.40;;;;;;;;;;4951480;28;20459;-74
2023/09/27 12:38:43;;;;;;;16.20;2.97;;;;;;;;;;4951897;28;20440;-73
2023/09/27 12:41:10;;;;;;;4.20;2.90;;;;;;;;;;4951173;28;20473;-73
2023/09/27 12:43:36;;;;;;;7.50;3.00;;;;;;;;;;4945338;28;20433;-76
2023/09/27 12:46:02;;;;;;;4.30;3.13;;;;;;;;;;4945840;28;20471;-76
2023/09/27 12:48:28;;;;;;;3.63;2.70;;;;;;;;;;4949942;28;20983;-78
2023/09/27 12:50:55;;;;;;;3.60;2.70;;;;;;;;;;4953318;28;20436;-75
2023/09/27 12:53:22;;;;;;;6.33;2.53;;;;;;;;;;4949651;28;20570;-79
2023/09/27 12:55:48;;;;;;;4.03;3.37;;;;;;;;;;4944006;28;20458;-76
2023/09/27 12:58:14;;;;;;;4.77;2.87;;;;;;;;;;4941270;29;20437;-76
2023/09/27 13:00:41;;;;;;;5.57;3.47;;;;;;;;;;4944345;29;20499;-76
2023/09/27 13:03:07;;;;;;;5.60;3.13;;;;;;;;;;4953620;29;20434;-75
2023/09/27 13:05:35;;;;;;;5.40;3.13;;;;;;;;;;4953309;29;20441;-76
2023/09/27 13:08:01;;;;;;;4.80;3.57;;;;;;;;;;4953777;28;21106;-76
2023/09/27 13:10:27;;;;;;;5.63;3.10;;;;;;;;;;4955324;29;20432;-77
2023/09/27 13:12:53;;;;;;;6.45;2.88;;;;;;;;;;4948948;29;20507;-77
2023/09/27 13:15:19;;;;;;;9.57;3.00;;;;;;;;;;4952982;29;20300;-78
2023/09/27 13:17:45;;;;;;;6.23;3.20;;;;;;;;;;4950809;28;20504;-76
2023/09/27 13:20:11;;;;;;;6.70;2.80;;;;;;;;;;4946912;28;20472;-76
2023/09/27 13:22:37;;;;;;;7.97;3.17;;;;;;;;;;4953145;28;20781;-77
2023/09/27 13:25:05;;;;;;;5.20;3.40;;;;;;;;;;4943968;28;20445;-76
2023/09/27 13:27:31;;;;;;;10.90;3.23;;;;;;;;;;4940248;28;20496;-76
2023/09/27 13:29:57;;;;;;;6.23;2.93;;;;;;;;;;4951081;28;20473;-77
2023/09/27 13:32:23;;;;;;;4.70;3.57;;;;;;;;;;4938625;28;20449;-77
2023/09/27 13:34:49;;;;;;;5.20;3.40;;;;;;;;;;4943365;28;20960;-77
2023/09/27 13:37:19;;;;;;;5.03;3.23;;;;;;;;;;4944500;29;20507;-75
2023/09/27 13:39:45;;;;;;;8.07;3.40;;;;;;;;;;4943568;28;20473;-76
2023/09/27 13:42:11;;;;;;;7.30;3.27;;;;;;;;;;4957152;28;20421;-76
2023/09/27 13:44:37;;;;;;;4.20;3.40;;;;;;;;;;4943613;28;20460;-75
2023/09/27 13:47:03;;;;;;;8.00;3.50;;;;;;;;;;4944341;28;20431;-77
2023/09/27 13:49:29;;;;;;;4.53;3.37;;;;;;;;;;4946212;28;20432;-77
2023/09/27 13:51:56;;;;;;;6.07;3.37;;;;;;;;;;4948249;28;20439;-77
2023/09/27 13:54:22;;;;;;;4.90;3.20;;;;;;;;;;4945689;28;20455;-76
2023/09/27 13:56:49;;;;;;;4.60;3.10;;;;;;;;;;4948870;29;20451;-77
2023/09/27 13:59:15;;;;;;;5.83;3.37;;;;;;;;;;4952847;29;20529;-76
2023/09/27 14:01:41;;;;;;;5.30;3.40;;;;;;;;;;4950010;28;20675;-77
2023/09/27 14:04:08;;;;;;;5.50;3.70;;;;;;;;;;4945225;29;20436;-77
2023/09/27 14:06:34;;;;;;;4.27;2.90;;;;;;;;;;4948021;28;20459;-77
2023/09/27 14:09:01;;;;;;;5.43;3.37;;;;;;;;;;4937253;28;20418;-77
2023/09/27 14:11:27;;;;;;;4.27;2.83;;;;;;;;;;4946192;28;20774;-75
2023/09/27 14:13:53;;;;;;;5.50;2.70;;;;;;;;;;4944192;28;20437;-77
2023/09/27 14:16:20;;;;;;;7.37;3.60;;;;;;;;;;4948560;28;20479;-76
2023/09/27 14:18:46;;;;;;;8.07;3.80;;;;;;;;;;4950640;28;21027;-77
2023/09/27 14:21:13;;;;;;;6.30;3.27;;;;;;;;;;4954203;28;20472;-77
2023/09/27 14:23:39;;;;;;;4.17;2.77;;;;;;;;;;4950367;28;20528;-77
2023/09/27 14:26:05;;;;;;;4.93;3.33;;;;;;;;;;4950796;28;20445;-76
2023/09/27 14:28:33;;;;;;;7.63;2.83;;;;;;;;;;4946069;28;20437;-76
2023/09/27 14:30:59;;;;;;;3.00;2.33;;;;;;;;;;4951188;28;20763;-76
2023/09/27 14:33:27;;;;;;;10.80;3.20;;;;;;;;;;4949420;28;20432;-78
2023/09/27 14:35:52;;;;;;;3.83;2.20;;;;;;;;;;4955702;28;22759;-77
2023/09/27 14:38:18;;;;;;;5.67;2.63;;;;;;;;;;4956882;29;20467;-77
2023/09/27 14:40:45;;;;;;;8.60;2.43;;;;;;;;;;4957881;29;20476;-77
2023/09/27 14:43:11;;;;;;;3.60;2.87;;;;;;;;;;4955426;28;20425;-77
2023/09/27 14:45:38;;;;;;;9.43;3.10;;;;;;;;;;4960379;28;20451;-77
2023/09/27 14:48:04;;;;;;;4.87;3.40;;;;;;;;;;4956457;28;20433;-77
2023/09/27 14:50:31;;;;;;;5.73;2.67;;;;;;;;;;4958088;29;20452;-77
2023/09/27 14:52:57;;;;;;;5.93;2.80;;;;;;;;;;4962214;29;20424;-77
2023/09/27 14:55:26;;;;;;;5.83;2.97;;;;;;;;;;4955790;28;20528;-77
2023/09/27 14:57:52;;;;;;;5.90;3.30;;;;;;;;;;4966723;28;20433;-77
2023/09/27 15:00:25;;;;;;;6.37;2.60;;;;;;;;;;4956714;29;20467;-77
2023/09/27 15:02:53;;;;;;;5.47;3.00;;;;;;;;;;4944784;29;20435;-77
2023/09/27 15:05:19;;;;;;;3.60;2.87;;;;;;;;;;4964022;28;20525;-78
2023/09/27 15:07:45;;;;;;;4.53;2.87;;;;;;;;;;4964211;29;20420;-77
2023/09/27 15:10:11;;;;;;;4.50;3.00;;;;;;;;;;4950566;28;20437;-77
2023/09/27 15:12:38;;;;;;;3.83;2.73;;;;;;;;;;4964442;28;20466;-78
2023/09/27 15:15:06;;;;;;;6.07;3.00;;;;;;;;;;4951552;28;20468;-78
2023/09/27 15:17:42;;;;;;;3.70;3.10;;;;;;;;;;4952380;29;20443;-78
2023/09/27 15:20:12;;;;;;;3.83;2.10;;;;;;;;;;4952585;29;20503;-77
2023/09/27 15:22:41;;;;;;;4.53;3.20;;;;;;;;;;4955526;28;20435;-77
2023/09/27 15:25:12;;;;;;;3.57;2.60;;;;;;;;;;4952739;29;20452;-77
2023/09/27 15:27:38;;;;;;;4.23;2.77;;;;;;;;;;4951628;29;21001;-77
2023/09/27 15:30:05;;;;;;;3.93;3.10;;;;;;;;;;4952637;28;20433;-77
2023/09/27 15:32:31;;;;;;;2.70;2.50;;;;;;;;;;4953792;29;20483;-77
2023/09/27 15:34:57;;;;;;;4.73;3.30;;;;;;;;;;4952748;29;20476;-74
2023/09/27 15:37:23;;;;;;;3.10;2.80;;;;;;;;;;4947462;29;20449;-75
2023/09/27 15:39:49;;;;;;;5.13;2.77;;;;;;;;;;4947019;29;20471;-75
2023/09/27 15:42:15;;;;;;;3.80;2.80;;;;;;;;;;4947665;29;20785;-75
2023/09/27 15:44:41;;;;;;;8.27;3.40;;;;;;;;;;4949459;29;20780;-75
2023/09/27 15:47:11;;;;;;;5.10;2.53;;;;;;;;;;4953527;28;20475;-74
2023/09/27 15:49:37;;;;;;;7.43;3.00;;;;;;;;;;4946423;28;20953;-75
2023/09/27 15:52:03;;;;;;;5.30;2.80;;;;;;;;;;4947982;29;20479;-73
2023/09/27 15:54:29;;;;;;;8.67;3.40;;;;;;;;;;4943118;28;20495;-74
2023/09/27 15:56:55;;;;;;;3.93;2.90;;;;;;;;;;4939870;28;20437;-76
2023/09/27 15:59:22;;;;;;;5.53;2.97;;;;;;;;;;4947847;28;20986;-75
2023/09/27 16:01:49;;;;;;;7.30;3.20;;;;;;;;;;4945349;28;20433;-73
2023/09/27 16:04:15;;;;;;;4.93;2.90;;;;;;;;;;4947522;28;20541;-75
2023/09/27 16:06:41;;;;;;;6.97;3.10;;;;;;;;;;4943832;29;20465;-76
2023/09/27 16:09:10;;;;;;;4.10;2.60;;;;;;;;;;4945177;28;20797;-75
2023/09/27 16:11:36;;;;;;;5.97;3.80;;;;;;;;;;4938866;28;20498;-75
2023/09/27 16:14:02;;;;;;;4.60;3.00;;;;;;;;;;4944130;28;20437;-75
2023/09/27 16:16:29;;;;;;;6.40;3.60;;;;;;;;;;4907439;28;1047482;-75
2023/09/27 16:18:55;;;;;;;6.53;3.60;;;;;;;;;;4942624;28;20192;-75
2023/09/27 16:21:23;;;;;;;5.13;2.90;;;;;;;;;;4951168;29;20813;-75
2023/09/27 16:23:49;;;;;;;8.20;3.30;;;;;;;;;;4948173;28;20475;-75
2023/09/27 16:26:15;;;;;;;9.53;3.77;;;;;;;;;;4954551;29;20927;-75
2023/09/27 16:28:41;;;;;;;5.20;3.30;;;;;;;;;;4955353;28;20813;-75
2023/09/27 16:31:07;;;;;;;4.83;3.40;;;;;;;;;;4943973;28;20871;-74
2023/09/27 16:33:35;;;;;;;6.00;3.90;;;;;;;;;;4952597;29;20429;-75
2023/09/27 16:36:02;;;;;;;12.93;4.60;;;;;;;;;;4945665;28;20971;-75
2023/09/27 16:38:29;;;;;;;5.03;3.83;;;;;;;;;;4948145;29;20433;-76
2023/09/27 16:40:54;;;;;;;7.63;3.67;;;;;;;;;;4943560;28;20469;-74
2023/09/27 16:43:21;;;;;;;6.87;3.57;;;;;;;;;;4948273;29;20520;-72
2023/09/27 16:45:48;;;;;;;6.30;3.63;;;;;;;;;;4945129;28;20460;-74
2023/09/27 16:48:14;;;;;;;10.97;3.10;;;;;;;;;;4939619;29;20438;-75
2023/09/27 16:50:40;;;;;;;5.23;3.70;;;;;;;;;;4946873;28;20935;-75
2023/09/27 16:53:06;;;;;;;4.50;3.10;;;;;;;;;;4946949;29;20439;-76
2023/09/27 16:55:32;;;;;;;5.47;3.30;;;;;;;;;;4943026;28;20472;-75
2023/09/27 16:57:58;;;;;;;4.50;3.73;;;;;;;;;;4948306;29;20503;-75
2023/09/27 17:00:24;;;;;;;3.73;3.20;;;;;;;;;;4946241;29;20476;-76
2023/09/27 17:02:50;;;;;;;8.27;3.67;;;;;;;;;;4942085;28;20436;-75
2023/09/27 17:05:16;;;;;;;6.87;4.10;;;;;;;;;;4944326;28;20444;-76
2023/09/27 17:07:42;;;;;;;5.73;3.67;;;;;;;;;;4953490;28;20440;-76
2023/09/27 17:10:08;;;;;;;7.97;3.60;;;;;;;;;;4951734;28;20437;-77
2023/09/27 17:12:34;;;;;;;9.50;4.17;;;;;;;;;;4951641;28;20440;-76
2023/09/27 17:15:00;;;;;;;23.90;13.40;;;;;;;;;;4948702;28;20508;-76
2023/09/27 17:17:26;;;;;;;6.90;5.20;;;;;;;;;;4948833;28;20463;-75
2023/09/27 17:19:52;;;;;;;17.07;8.20;;;;;;;;;;4952484;28;20485;-76
2023/09/27 17:22:19;;;;;;;16.70;9.70;;;;;;;;;;4948807;28;20446;-76
2023/09/27 17:24:45;;;;;;;15.40;10.10;;;;;;;;;;4944693;28;20453;-76
2023/09/27 17:27:11;;;;;;;26.13;13.97;;;;;;;;;;4953178;28;20433;-76
2023/09/27 17:29:37;;;;;;;21.17;12.10;;;;;;;;;;4957895;28;20914;-76
2023/09/27 17:32:03;;;;;;;18.83;10.10;;;;;;;;;;4944603;28;20441;-76
2023/09/27 17:34:29;;;;;;;17.60;10.17;;;;;;;;;;4952085;28;20427;-76
2023/09/27 17:36:55;;;;;;;7.10;5.10;;;;;;;;;;4951404;28;20444;-76
2023/09/27 17:39:21;;;;;;;10.67;6.33;;;;;;;;;;4948180;28;20479;-76
2023/09/27 17:41:47;;;;;;;10.53;5.20;;;;;;;;;;4948432;28;20434;-76
2023/09/27 17:44:13;;;;;;;9.07;5.23;;;;;;;;;;4951589;28;20520;-77
2023/09/27 17:46:39;;;;;;;8.70;5.20;;;;;;;;;;4943875;28;20436;-77
2023/09/27 17:49:05;;;;;;;7.40;5.40;;;;;;;;;;4949967;28;20998;-75
2023/09/27 17:51:32;;;;;;;10.63;4.80;;;;;;;;;;4963566;28;20893;-75
2023/09/27 17:53:59;;;;;;;14.80;5.60;;;;;;;;;;4950214;28;20528;-74
2023/09/27 17:56:25;;;;;;;10.63;6.83;;;;;;;;;;4956024;28;20455;-74
2023/09/27 17:58:51;;;;;;;16.47;5.60;;;;;;;;;;4957343;28;20505;-73
2023/09/27 18:01:17;;;;;;;8.30;4.90;;;;;;;;;;4953611;28;20584;-73
2023/09/27 18:03:45;;;;;;;7.97;5.27;;;;;;;;;;4954572;29;20522;-74
2023/09/27 18:06:12;;;;;;;6.10;4.40;;;;;;;;;;4954154;28;20448;-72
2023/09/27 18:08:39;;;;;;;8.47;5.53;;;;;;;;;;4956609;28;20429;-75
2023/09/27 18:11:09;;;;;;;7.87;5.50;;;;;;;;;;4954613;28;20495;-75
2023/09/27 18:13:35;;;;;;;6.70;4.60;;;;;;;;;;4954945;29;20428;-74
2023/09/27 18:16:01;;;;;;;9.40;5.77;;;;;;;;;;4962301;28;20495;-74
2023/09/27 18:18:27;;;;;;;11.83;6.70;;;;;;;;;;4972057;28;20460;-73
2023/09/27 18:20:53;;;;;;;9.17;5.60;;;;;;;;;;4959340;28;20934;-74
2023/09/27 18:23:20;;;;;;;6.80;5.10;;;;;;;;;;4951671;28;20448;-77
2023/09/27 18:25:46;;;;;;;12.73;6.13;;;;;;;;;;4954378;28;20448;-76
2023/09/27 18:28:12;;;;;;;11.27;6.07;;;;;;;;;;4956644;28;20470;-76
2023/09/27 18:30:38;;;;;;;10.73;5.47;;;;;;;;;;4956675;29;20524;-77
2023/09/27 18:33:04;;;;;;;10.83;6.07;;;;;;;;;;4953696;29;20429;-77
2023/09/27 18:35:30;;;;;;;14.07;6.70;;;;;;;;;;4946601;29;20562;-77
2023/09/27 18:37:56;;;;;;;14.70;6.80;;;;;;;;;;4967387;28;20425;-76
2023/09/27 18:40:22;;;;;;;10.40;6.33;;;;;;;;;;4960733;28;20500;-77
2023/09/27 18:42:49;;;;;;;17.40;7.93;;;;;;;;;;4955513;29;20535;-77
2023/09/27 18:45:15;;;;;;;18.33;7.40;;;;;;;;;;4955240;29;20452;-77
2023/09/27 18:47:41;;;;;;;18.73;7.90;;;;;;;;;;4952896;28;20433;-77
2023/09/27 18:50:07;;;;;;;14.40;7.23;;;;;;;;;;4950259;28;20444;-75
2023/09/27 18:52:34;;;;;;;19.57;7.13;;;;;;;;;;4942266;28;20440;-77
2023/09/27 18:55:00;;;;;;;13.20;8.10;;;;;;;;;;4948626;28;20463;-77
2023/09/27 18:57:26;;;;;;;11.60;7.23;;;;;;;;;;4951055;29;20436;-77
2023/09/27 18:59:52;;;;;;;14.17;7.27;;;;;;;;;;4955505;28;20476;-77
2023/09/27 19:02:18;;;;;;;11.60;7.40;;;;;;;;;;4954299;29;20451;-77
2023/09/27 19:04:43;;;;;;;17.07;8.33;;;;;;;;;;4959495;28;20464;-77
2023/09/27 19:07:09;;;;;;;13.57;7.50;;;;;;;;;;4957004;28;20409;-75
2023/09/27 19:09:35;;;;;;;18.17;7.60;;;;;;;;;;4947630;28;20954;-76
2023/09/27 19:12:02;;;;;;;14.37;7.30;;;;;;;;;;4961424;28;20444;-76
2023/09/27 19:14:28;;;;;;;16.83;7.43;;;;;;;;;;4956515;28;20440;-76
2023/09/27 19:16:54;;;;;;;16.63;8.13;;;;;;;;;;4954537;28;20938;-77
2023/09/27 19:19:20;;;;;;;22.83;9.00;;;;;;;;;;4951110;28;20982;-75
2023/09/27 19:21:46;;;;;;;16.03;7.40;;;;;;;;;;4959138;28;20433;-78
2023/09/27 19:24:12;;;;;;;16.33;7.93;;;;;;;;;;4955108;28;20444;-78
2023/09/27 19:26:39;;;;;;;16.80;8.80;;;;;;;;;;4961833;28;20441;-78
2023/09/27 19:29:05;;;;;;;25.90;8.63;;;;;;;;;;4961336;28;20508;-78
2023/09/27 19:31:31;;;;;;;9.77;6.50;;;;;;;;;;4964311;28;20443;-80
2023/09/27 19:33:58;;;;;;;16.40;8.37;;;;;;;;;;4961620;28;20460;-78
2023/09/27 19:36:25;;;;;;;15.23;8.60;;;;;;;;;;4960823;28;20968;-78
2023/09/27 19:38:51;;;;;;;12.60;8.23;;;;;;;;;;4960284;28;20460;-78
2023/09/27 19:41:18;;;;;;;12.07;7.90;;;;;;;;;;4960108;28;20503;-78
2023/09/27 19:43:44;;;;;;;21.20;8.40;;;;;;;;;;4951257;28;20438;-78
2023/09/27 19:46:11;;;;;;;17.80;8.10;;;;;;;;;;4956681;28;20455;-80
2023/09/27 19:48:41;;;;;;;19.07;8.90;;;;;;;;;;4978699;28;20923;-78
2023/09/27 19:51:07;;;;;;;12.50;7.87;;;;;;;;;;4959495;28;20447;-78
2023/09/27 19:53:33;;;;;;;18.33;8.97;;;;;;;;;;4958434;28;20440;-78
2023/09/27 19:56:06;;;;;;;19.20;9.07;;;;;;;;;;4953733;28;20503;-77
2023/09/27 19:58:32;;;;;;;18.97;9.73;;;;;;;;;;4958174;28;20449;-77
2023/09/27 20:00:58;;;;;;;16.50;9.50;;;;;;;;;;4966851;28;20470;-78
2023/09/27 20:03:24;;;;;;;14.30;7.90;;;;;;;;;;4965970;28;21088;-77
2023/09/27 20:05:50;;;;;;;22.93;9.80;;;;;;;;;;4961339;28;20445;-72
2023/09/27 20:08:16;;;;;;;12.10;8.10;;;;;;;;;;4950093;29;20417;-73
2023/09/27 20:10:42;;;;;;;17.27;9.63;;;;;;;;;;4946951;29;20427;-73
2023/09/27 20:13:08;;;;;;;18.47;9.70;;;;;;;;;;4949269;28;20467;-73
2023/09/27 20:15:35;;;;;;;20.00;8.97;;;;;;;;;;4945110;28;20532;-73
2023/09/27 20:18:01;;;;;;;15.47;8.03;;;;;;;;;;4945972;28;20929;-73
2023/09/27 20:20:28;;;;;;;17.07;9.20;;;;;;;;;;4944355;29;20456;-73
2023/09/27 20:22:54;;;;;;;21.70;9.00;;;;;;;;;;4946503;29;20404;-72
2023/09/27 20:25:20;;;;;;;19.20;8.17;;;;;;;;;;4945521;29;20440;-73
2023/09/27 20:27:46;;;;;;;13.23;8.20;;;;;;;;;;4947101;29;20468;-73
2023/09/27 20:30:12;;;;;;;17.73;8.30;;;;;;;;;;4947039;28;20422;-71
2023/09/27 20:32:39;;;;;;;16.40;8.10;;;;;;;;;;4946141;29;20428;-73
2023/09/27 20:35:05;;;;;;;20.63;9.60;;;;;;;;;;4946479;29;20467;-72